sensor_id;sensor_type;location;lat;lon;timestamp;P1;durP1;ratioP1;P2;durP2;ratioP2
11037;SDS011;5572;49.540;11.932;2023-03-18T00:00:09;177.70;;;40.90;;
11037;SDS011;5572;49.540;11.932;2023-03-18T00:02:40;171.97;;;38.87;;
11037;SDS011;5572;49.540;11.932;2023-03-18T00:05:08;179.60;;;41.33;;
11037;SDS011;5572;49.540;11.932;2023-03-18T00:07:35;173.97;;;39.57;;
11037;SDS011;5572;49.540;11.932;2023-03-18T00:10:02;174.07;;;39.57;;
11037;SDS011;5572;49.540;11.932;2023-03-18T00:12:29;175.00;;;39.70;;
11037;SDS011;5572;49.540;11.932;2023-03-18T00:14:57;175.63;;;39.70;;
11037;SDS011;5572;49.540;11.932;2023-03-18T00:17:24;173.90;;;39.57;;
11037;SDS011;5572;49.540;11.932;2023-03-18T00:19:50;176.97;;;40.13;;
11037;SDS011;5572;49.540;11.932;2023-03-18T00:22:19;175.03;;;39.77;;
11037;SDS011;5572;49.540;11.932;2023-03-18T00:24:45;173.57;;;39.07;;
11037;SDS011;5572;49.540;11.932;2023-03-18T00:27:13;176.77;;;41.33;;
11037;SDS011;5572;49.540;11.932;2023-03-18T00:29:39;176.20;;;39.77;;
11037;SDS011;5572;49.540;11.932;2023-03-18T00:32:05;176.77;;;40.73;;
11037;SDS011;5572;49.540;11.932;2023-03-18T00:34:33;175.47;;;39.07;;
11037;SDS011;5572;49.540;11.932;2023-03-18T00:36:59;176.97;;;39.97;;
11037;SDS011;5572;49.540;11.932;2023-03-18T00:39:27;178.73;;;40.17;;
11037;SDS011;5572;49.540;11.932;2023-03-18T00:41:56;174.37;;;38.47;;
11037;SDS011;5572;49.540;11.932;2023-03-18T00:44:23;173.60;;;38.60;;
11037;SDS011;5572;49.540;11.932;2023-03-18T00:46:50;175.77;;;39.53;;
11037;SDS011;5572;49.540;11.932;2023-03-18T00:49:17;179.63;;;40.57;;
11037;SDS011;5572;49.540;11.932;2023-03-18T00:51:44;179.13;;;40.23;;
11037;SDS011;5572;49.540;11.932;2023-03-18T00:54:11;180.13;;;40.83;;
11037;SDS011;5572;49.540;11.932;2023-03-18T00:56:42;182.10;;;40.57;;
11037;SDS011;5572;49.540;11.932;2023-03-18T00:59:09;181.03;;;40.03;;
11037;SDS011;5572;49.540;11.932;2023-03-18T01:01:36;178.83;;;39.43;;
11037;SDS011;5572;49.540;11.932;2023-03-18T01:04:02;181.17;;;40.73;;
11037;SDS011;5572;49.540;11.932;2023-03-18T01:06:31;178.90;;;39.10;;
11037;SDS011;5572;49.540;11.932;2023-03-18T01:08:59;179.80;;;39.57;;
11037;SDS011;5572;49.540;11.932;2023-03-18T01:11:27;179.17;;;39.33;;
11037;SDS011;5572;49.540;11.932;2023-03-18T01:13:55;178.90;;;40.60;;
11037;SDS011;5572;49.540;11.932;2023-03-18T01:16:23;176.10;;;38.33;;
11037;SDS011;5572;49.540;11.932;2023-03-18T01:18:50;177.63;;;40.30;;
11037;SDS011;5572;49.540;11.932;2023-03-18T01:21:17;179.83;;;40.23;;
11037;SDS011;5572;49.540;11.932;2023-03-18T01:23:44;180.10;;;40.37;;
11037;SDS011;5572;49.540;11.932;2023-03-18T01:26:11;183.50;;;41.73;;
11037;SDS011;5572;49.540;11.932;2023-03-18T01:28:37;181.80;;;40.97;;
11037;SDS011;5572;49.540;11.932;2023-03-18T01:31:05;180.67;;;40.03;;
11037;SDS011;5572;49.540;11.932;2023-03-18T01:33:32;179.83;;;38.73;;
11037;SDS011;5572;49.540;11.932;2023-03-18T01:35:59;182.30;;;40.30;;
11037;SDS011;5572;49.540;11.932;2023-03-18T01:38:27;179.20;;;40.40;;
11037;SDS011;5572;49.540;11.932;2023-03-18T01:40:55;181.50;;;40.17;;
11037;SDS011;5572;49.540;11.932;2023-03-18T01:43:23;180.33;;;39.37;;
11037;SDS011;5572;49.540;11.932;2023-03-18T01:45:52;180.03;;;40.17;;
11037;SDS011;5572;49.540;11.932;2023-03-18T01:48:23;179.20;;;40.40;;
11037;SDS011;5572;49.540;11.932;2023-03-18T01:50:53;178.60;;;39.43;;
11037;SDS011;5572;49.540;11.932;2023-03-18T01:53:33;177.93;;;39.47;;
11037;SDS011;5572;49.540;11.932;2023-03-18T01:56:03;179.03;;;39.20;;
11037;SDS011;5572;49.540;11.932;2023-03-18T01:58:33;180.00;;;40.03;;
11037;SDS011;5572;49.540;11.932;2023-03-18T02:01:03;180.83;;;40.13;;
11037;SDS011;5572;49.540;11.932;2023-03-18T02:03:34;179.20;;;40.00;;
11037;SDS011;5572;49.540;11.932;2023-03-18T02:06:01;179.20;;;39.43;;
11037;SDS011;5572;49.540;11.932;2023-03-18T02:08:28;178.77;;;40.00;;
11037;SDS011;5572;49.540;11.932;2023-03-18T02:10:54;180.57;;;40.77;;
11037;SDS011;5572;49.540;11.932;2023-03-18T02:13:21;178.60;;;39.60;;
11037;SDS011;5572;49.540;11.932;2023-03-18T02:15:50;179.37;;;40.57;;
11037;SDS011;5572;49.540;11.932;2023-03-18T02:18:20;178.43;;;39.83;;
11037;SDS011;5572;49.540;11.932;2023-03-18T02:21:04;178.70;;;39.50;;
11037;SDS011;5572;49.540;11.932;2023-03-18T02:23:44;176.47;;;39.80;;
11037;SDS011;5572;49.540;11.932;2023-03-18T02:26:20;177.87;;;39.90;;
11037;SDS011;5572;49.540;11.932;2023-03-18T02:28:55;178.57;;;40.10;;
11037;SDS011;5572;49.540;11.932;2023-03-18T02:31:26;176.80;;;39.27;;
11037;SDS011;5572;49.540;11.932;2023-03-18T02:33:54;180.40;;;40.47;;
11037;SDS011;5572;49.540;11.932;2023-03-18T02:36:24;180.90;;;40.27;;
11037;SDS011;5572;49.540;11.932;2023-03-18T02:38:52;182.90;;;39.60;;
11037;SDS011;5572;49.540;11.932;2023-03-18T02:41:20;179.93;;;38.83;;
11037;SDS011;5572;49.540;11.932;2023-03-18T02:43:49;180.93;;;39.23;;
11037;SDS011;5572;49.540;11.932;2023-03-18T02:46:27;183.60;;;40.03;;
11037;SDS011;5572;49.540;11.932;2023-03-18T02:48:56;182.57;;;39.90;;
11037;SDS011;5572;49.540;11.932;2023-03-18T02:51:24;183.87;;;39.80;;
11037;SDS011;5572;49.540;11.932;2023-03-18T02:53:51;183.20;;;39.87;;
11037;SDS011;5572;49.540;11.932;2023-03-18T02:56:22;188.10;;;40.77;;
11037;SDS011;5572;49.540;11.932;2023-03-18T02:58:49;186.97;;;41.13;;
11037;SDS011;5572;49.540;11.932;2023-03-18T03:01:15;188.07;;;42.00;;
11037;SDS011;5572;49.540;11.932;2023-03-18T03:03:43;201.17;;;52.13;;
11037;SDS011;5572;49.540;11.932;2023-03-18T03:06:11;184.67;;;41.07;;
11037;SDS011;5572;49.540;11.932;2023-03-18T03:08:38;184.93;;;40.93;;
11037;SDS011;5572;49.540;11.932;2023-03-18T03:11:05;184.53;;;40.60;;
11037;SDS011;5572;49.540;11.932;2023-03-18T03:13:32;183.17;;;40.10;;
11037;SDS011;5572;49.540;11.932;2023-03-18T03:15:59;185.70;;;40.53;;
11037;SDS011;5572;49.540;11.932;2023-03-18T03:18:26;185.07;;;40.57;;
11037;SDS011;5572;49.540;11.932;2023-03-18T03:20:55;184.20;;;39.87;;
11037;SDS011;5572;49.540;11.932;2023-03-18T03:23:22;183.70;;;40.07;;
11037;SDS011;5572;49.540;11.932;2023-03-18T03:25:48;184.47;;;40.23;;
11037;SDS011;5572;49.540;11.932;2023-03-18T03:28:15;192.00;;;43.97;;
11037;SDS011;5572;49.540;11.932;2023-03-18T03:30:41;186.30;;;40.13;;
11037;SDS011;5572;49.540;11.932;2023-03-18T03:33:08;183.40;;;40.67;;
11037;SDS011;5572;49.540;11.932;2023-03-18T03:35:35;183.60;;;39.67;;
11037;SDS011;5572;49.540;11.932;2023-03-18T03:38:03;184.47;;;39.37;;
11037;SDS011;5572;49.540;11.932;2023-03-18T03:40:30;184.40;;;39.23;;
11037;SDS011;5572;49.540;11.932;2023-03-18T03:42:57;192.03;;;44.47;;
11037;SDS011;5572;49.540;11.932;2023-03-18T03:45:24;185.50;;;40.73;;
11037;SDS011;5572;49.540;11.932;2023-03-18T03:47:51;182.63;;;39.57;;
11037;SDS011;5572;49.540;11.932;2023-03-18T03:50:18;182.67;;;39.63;;
11037;SDS011;5572;49.540;11.932;2023-03-18T03:52:46;184.07;;;39.50;;
11037;SDS011;5572;49.540;11.932;2023-03-18T03:55:15;183.57;;;40.27;;
11037;SDS011;5572;49.540;11.932;2023-03-18T03:57:43;180.47;;;39.60;;
11037;SDS011;5572;49.540;11.932;2023-03-18T04:00:11;182.87;;;39.73;;
11037;SDS011;5572;49.540;11.932;2023-03-18T04:02:39;185.33;;;40.70;;
11037;SDS011;5572;49.540;11.932;2023-03-18T04:05:07;185.93;;;41.27;;
11037;SDS011;5572;49.540;11.932;2023-03-18T04:07:35;185.03;;;40.63;;
11037;SDS011;5572;49.540;11.932;2023-03-18T04:10:02;183.70;;;40.60;;
11037;SDS011;5572;49.540;11.932;2023-03-18T04:12:30;183.07;;;40.60;;
11037;SDS011;5572;49.540;11.932;2023-03-18T04:14:57;183.63;;;40.33;;
11037;SDS011;5572;49.540;11.932;2023-03-18T04:17:24;184.10;;;39.73;;
11037;SDS011;5572;49.540;11.932;2023-03-18T04:19:50;185.07;;;40.07;;
11037;SDS011;5572;49.540;11.932;2023-03-18T04:22:17;185.17;;;41.07;;
11037;SDS011;5572;49.540;11.932;2023-03-18T04:24:44;183.87;;;40.10;;
11037;SDS011;5572;49.540;11.932;2023-03-18T04:27:11;192.73;;;43.33;;
11037;SDS011;5572;49.540;11.932;2023-03-18T04:29:39;183.77;;;39.10;;
11037;SDS011;5572;49.540;11.932;2023-03-18T04:32:06;187.67;;;40.00;;
11037;SDS011;5572;49.540;11.932;2023-03-18T04:34:32;186.77;;;39.87;;
11037;SDS011;5572;49.540;11.932;2023-03-18T04:36:59;187.73;;;40.83;;
11037;SDS011;5572;49.540;11.932;2023-03-18T04:39:26;185.10;;;40.83;;
11037;SDS011;5572;49.540;11.932;2023-03-18T04:41:52;185.17;;;40.30;;
11037;SDS011;5572;49.540;11.932;2023-03-18T04:44:21;184.13;;;40.90;;
11037;SDS011;5572;49.540;11.932;2023-03-18T04:46:49;186.70;;;41.60;;
11037;SDS011;5572;49.540;11.932;2023-03-18T04:49:16;184.10;;;39.93;;
11037;SDS011;5572;49.540;11.932;2023-03-18T04:51:43;186.97;;;41.50;;
11037;SDS011;5572;49.540;11.932;2023-03-18T04:54:10;185.23;;;40.53;;
11037;SDS011;5572;49.540;11.932;2023-03-18T04:56:37;186.77;;;40.73;;
11037;SDS011;5572;49.540;11.932;2023-03-18T04:59:04;205.40;;;52.27;;
11037;SDS011;5572;49.540;11.932;2023-03-18T05:01:31;184.80;;;42.23;;
11037;SDS011;5572;49.540;11.932;2023-03-18T05:04:00;185.33;;;41.77;;
11037;SDS011;5572;49.540;11.932;2023-03-18T05:06:27;186.97;;;41.67;;
11037;SDS011;5572;49.540;11.932;2023-03-18T05:08:56;197.77;;;47.57;;
11037;SDS011;5572;49.540;11.932;2023-03-18T05:11:23;187.37;;;41.87;;
11037;SDS011;5572;49.540;11.932;2023-03-18T05:13:50;185.07;;;41.03;;
11037;SDS011;5572;49.540;11.932;2023-03-18T05:16:17;187.57;;;41.60;;
11037;SDS011;5572;49.540;11.932;2023-03-18T05:18:43;186.07;;;40.97;;
11037;SDS011;5572;49.540;11.932;2023-03-18T05:21:12;189.77;;;41.13;;
11037;SDS011;5572;49.540;11.932;2023-03-18T05:23:39;189.13;;;41.93;;
11037;SDS011;5572;49.540;11.932;2023-03-18T05:26:07;188.93;;;42.03;;
11037;SDS011;5572;49.540;11.932;2023-03-18T05:28:35;183.17;;;39.33;;
11037;SDS011;5572;49.540;11.932;2023-03-18T05:31:03;187.57;;;41.90;;
11037;SDS011;5572;49.540;11.932;2023-03-18T05:33:30;186.53;;;41.43;;
11037;SDS011;5572;49.540;11.932;2023-03-18T05:35:57;188.53;;;42.60;;
11037;SDS011;5572;49.540;11.932;2023-03-18T05:38:24;186.47;;;41.27;;
11037;SDS011;5572;49.540;11.932;2023-03-18T05:40:51;188.63;;;43.60;;
11037;SDS011;5572;49.540;11.932;2023-03-18T05:43:18;187.30;;;42.17;;
11037;SDS011;5572;49.540;11.932;2023-03-18T05:45:45;185.37;;;41.37;;
11037;SDS011;5572;49.540;11.932;2023-03-18T05:48:12;186.20;;;41.27;;
11037;SDS011;5572;49.540;11.932;2023-03-18T05:50:40;187.83;;;41.67;;
11037;SDS011;5572;49.540;11.932;2023-03-18T05:53:07;189.10;;;43.23;;
11037;SDS011;5572;49.540;11.932;2023-03-18T05:55:37;187.77;;;42.20;;
11037;SDS011;5572;49.540;11.932;2023-03-18T05:58:04;190.33;;;43.17;;
11037;SDS011;5572;49.540;11.932;2023-03-18T06:00:31;188.80;;;42.70;;
11037;SDS011;5572;49.540;11.932;2023-03-18T06:02:58;189.93;;;42.93;;
11037;SDS011;5572;49.540;11.932;2023-03-18T06:05:25;189.80;;;43.60;;
11037;SDS011;5572;49.540;11.932;2023-03-18T06:07:53;188.90;;;42.73;;
11037;SDS011;5572;49.540;11.932;2023-03-18T06:10:20;187.17;;;42.17;;
11037;SDS011;5572;49.540;11.932;2023-03-18T06:12:50;189.30;;;42.97;;
11037;SDS011;5572;49.540;11.932;2023-03-18T06:15:19;191.03;;;43.27;;
11037;SDS011;5572;49.540;11.932;2023-03-18T06:17:45;189.77;;;44.30;;
11037;SDS011;5572;49.540;11.932;2023-03-18T06:20:12;192.33;;;44.83;;
11037;SDS011;5572;49.540;11.932;2023-03-18T06:22:40;191.37;;;43.77;;
11037;SDS011;5572;49.540;11.932;2023-03-18T06:25:07;190.27;;;43.27;;
11037;SDS011;5572;49.540;11.932;2023-03-18T06:27:34;190.93;;;43.47;;
11037;SDS011;5572;49.540;11.932;2023-03-18T06:30:03;183.63;;;40.27;;
11037;SDS011;5572;49.540;11.932;2023-03-18T06:32:30;186.23;;;42.57;;
11037;SDS011;5572;49.540;11.932;2023-03-18T06:34:58;186.63;;;42.27;;
11037;SDS011;5572;49.540;11.932;2023-03-18T06:37:24;190.53;;;46.00;;
11037;SDS011;5572;49.540;11.932;2023-03-18T06:39:52;184.87;;;40.73;;
11037;SDS011;5572;49.540;11.932;2023-03-18T06:42:19;185.27;;;43.23;;
11037;SDS011;5572;49.540;11.932;2023-03-18T06:44:45;185.83;;;42.13;;
11037;SDS011;5572;49.540;11.932;2023-03-18T06:47:16;185.13;;;44.43;;
11037;SDS011;5572;49.540;11.932;2023-03-18T06:49:43;187.67;;;43.47;;
11037;SDS011;5572;49.540;11.932;2023-03-18T06:52:10;190.30;;;44.07;;
11037;SDS011;5572;49.540;11.932;2023-03-18T06:54:37;182.47;;;42.03;;
11037;SDS011;5572;49.540;11.932;2023-03-18T06:57:04;187.13;;;43.20;;
11037;SDS011;5572;49.540;11.932;2023-03-18T06:59:31;184.77;;;42.67;;
11037;SDS011;5572;49.540;11.932;2023-03-18T07:01:58;187.17;;;44.20;;
11037;SDS011;5572;49.540;11.932;2023-03-18T07:04:26;183.30;;;44.20;;
11037;SDS011;5572;49.540;11.932;2023-03-18T07:06:52;181.23;;;42.17;;
11037;SDS011;5572;49.540;11.932;2023-03-18T07:09:20;178.60;;;40.77;;
11037;SDS011;5572;49.540;11.932;2023-03-18T07:11:47;178.67;;;42.57;;
11037;SDS011;5572;49.540;11.932;2023-03-18T07:14:14;177.70;;;41.17;;
11037;SDS011;5572;49.540;11.932;2023-03-18T07:16:40;179.67;;;42.20;;
11037;SDS011;5572;49.540;11.932;2023-03-18T07:19:07;182.13;;;42.97;;
11037;SDS011;5572;49.540;11.932;2023-03-18T07:21:36;177.87;;;41.67;;
11037;SDS011;5572;49.540;11.932;2023-03-18T07:24:04;179.73;;;42.20;;
11037;SDS011;5572;49.540;11.932;2023-03-18T07:26:31;182.17;;;43.53;;
11037;SDS011;5572;49.540;11.932;2023-03-18T07:28:58;179.90;;;42.87;;
11037;SDS011;5572;49.540;11.932;2023-03-18T07:31:24;177.40;;;41.47;;
11037;SDS011;5572;49.540;11.932;2023-03-18T07:33:51;178.10;;;42.83;;
11037;SDS011;5572;49.540;11.932;2023-03-18T07:36:18;177.63;;;42.27;;
11037;SDS011;5572;49.540;11.932;2023-03-18T07:38:46;178.40;;;43.20;;
11037;SDS011;5572;49.540;11.932;2023-03-18T07:41:13;179.73;;;43.40;;
11037;SDS011;5572;49.540;11.932;2023-03-18T07:43:39;178.97;;;42.67;;
11037;SDS011;5572;49.540;11.932;2023-03-18T07:46:07;173.73;;;41.37;;
11037;SDS011;5572;49.540;11.932;2023-03-18T07:48:34;174.87;;;40.97;;
11037;SDS011;5572;49.540;11.932;2023-03-18T07:51:01;177.73;;;42.80;;
11037;SDS011;5572;49.540;11.932;2023-03-18T07:53:27;178.50;;;43.57;;
11037;SDS011;5572;49.540;11.932;2023-03-18T07:55:56;176.07;;;41.80;;
11037;SDS011;5572;49.540;11.932;2023-03-18T07:58:22;176.00;;;41.90;;
11037;SDS011;5572;49.540;11.932;2023-03-18T08:00:50;172.70;;;40.33;;
11037;SDS011;5572;49.540;11.932;2023-03-18T08:03:18;172.77;;;42.53;;
11037;SDS011;5572;49.540;11.932;2023-03-18T08:05:44;169.57;;;42.20;;
11037;SDS011;5572;49.540;11.932;2023-03-18T08:08:11;164.73;;;41.40;;
11037;SDS011;5572;49.540;11.932;2023-03-18T08:10:37;169.77;;;42.03;;
11037;SDS011;5572;49.540;11.932;2023-03-18T08:13:05;168.10;;;40.57;;
11037;SDS011;5572;49.540;11.932;2023-03-18T08:15:32;169.67;;;42.87;;
11037;SDS011;5572;49.540;11.932;2023-03-18T08:17:58;176.80;;;40.73;;
11037;SDS011;5572;49.540;11.932;2023-03-18T08:20:25;170.93;;;43.40;;
11037;SDS011;5572;49.540;11.932;2023-03-18T08:22:52;171.63;;;42.77;;
11037;SDS011;5572;49.540;11.932;2023-03-18T08:25:20;167.73;;;42.73;;
11037;SDS011;5572;49.540;11.932;2023-03-18T08:27:47;164.47;;;41.53;;
11037;SDS011;5572;49.540;11.932;2023-03-18T08:30:16;169.20;;;41.80;;
11037;SDS011;5572;49.540;11.932;2023-03-18T08:32:43;163.50;;;41.87;;
11037;SDS011;5572;49.540;11.932;2023-03-18T08:35:10;165.23;;;41.47;;
11037;SDS011;5572;49.540;11.932;2023-03-18T08:37:37;160.93;;;41.93;;
11037;SDS011;5572;49.540;11.932;2023-03-18T08:40:05;159.53;;;41.47;;
11037;SDS011;5572;49.540;11.932;2023-03-18T08:42:33;159.97;;;42.03;;
11037;SDS011;5572;49.540;11.932;2023-03-18T08:45:00;162.13;;;41.57;;
11037;SDS011;5572;49.540;11.932;2023-03-18T08:47:30;162.73;;;41.77;;
11037;SDS011;5572;49.540;11.932;2023-03-18T08:49:56;157.80;;;39.40;;
11037;SDS011;5572;49.540;11.932;2023-03-18T08:52:23;159.17;;;40.80;;
11037;SDS011;5572;49.540;11.932;2023-03-18T08:54:49;161.20;;;41.40;;
11037;SDS011;5572;49.540;11.932;2023-03-18T08:57:17;156.60;;;41.50;;
11037;SDS011;5572;49.540;11.932;2023-03-18T08:59:44;157.73;;;41.70;;
11037;SDS011;5572;49.540;11.932;2023-03-18T09:02:11;156.93;;;43.23;;
11037;SDS011;5572;49.540;11.932;2023-03-18T09:04:42;158.23;;;42.97;;
11037;SDS011;5572;49.540;11.932;2023-03-18T09:07:08;153.23;;;40.93;;
11037;SDS011;5572;49.540;11.932;2023-03-18T09:09:37;149.33;;;41.33;;
11037;SDS011;5572;49.540;11.932;2023-03-18T09:12:04;149.20;;;42.20;;
11037;SDS011;5572;49.540;11.932;2023-03-18T09:14:33;154.50;;;42.07;;
11037;SDS011;5572;49.540;11.932;2023-03-18T09:17:00;154.60;;;40.77;;
11037;SDS011;5572;49.540;11.932;2023-03-18T09:19:26;145.57;;;40.67;;
11037;SDS011;5572;49.540;11.932;2023-03-18T09:21:57;145.57;;;39.87;;
11037;SDS011;5572;49.540;11.932;2023-03-18T09:24:24;140.73;;;39.43;;
11037;SDS011;5572;49.540;11.932;2023-03-18T09:26:50;145.77;;;39.20;;
11037;SDS011;5572;49.540;11.932;2023-03-18T09:29:17;145.97;;;40.57;;
11037;SDS011;5572;49.540;11.932;2023-03-18T09:31:44;147.20;;;41.83;;
11037;SDS011;5572;49.540;11.932;2023-03-18T09:34:11;146.80;;;41.17;;
11037;SDS011;5572;49.540;11.932;2023-03-18T09:36:38;145.97;;;41.33;;
11037;SDS011;5572;49.540;11.932;2023-03-18T09:39:06;154.07;;;43.80;;
11037;SDS011;5572;49.540;11.932;2023-03-18T09:41:37;144.30;;;40.30;;
11037;SDS011;5572;49.540;11.932;2023-03-18T09:44:13;137.98;;;40.15;;
11037;SDS011;5572;49.540;11.932;2023-03-18T09:46:51;137.38;;;39.55;;
11037;SDS011;5572;49.540;11.932;2023-03-18T09:49:32;133.75;;;37.85;;
11037;SDS011;5572;49.540;11.932;2023-03-18T09:52:07;134.60;;;38.08;;
11037;SDS011;5572;49.540;11.932;2023-03-18T09:54:44;134.88;;;37.83;;
11037;SDS011;5572;49.540;11.932;2023-03-18T09:57:18;137.55;;;43.13;;
11037;SDS011;5572;49.540;11.932;2023-03-18T09:59:49;142.40;;;40.13;;
11037;SDS011;5572;49.540;11.932;2023-03-18T10:02:21;148.70;;;40.30;;
11037;SDS011;5572;49.540;11.932;2023-03-18T10:04:52;149.37;;;40.73;;
11037;SDS011;5572;49.540;11.932;2023-03-18T10:07:24;151.33;;;41.47;;
11037;SDS011;5572;49.540;11.932;2023-03-18T10:09:58;152.13;;;40.60;;
11037;SDS011;5572;49.540;11.932;2023-03-18T10:12:29;143.77;;;38.23;;
11037;SDS011;5572;49.540;11.932;2023-03-18T10:15:01;145.47;;;40.20;;
11037;SDS011;5572;49.540;11.932;2023-03-18T10:17:36;146.00;;;42.60;;
11037;SDS011;5572;49.540;11.932;2023-03-18T10:20:12;142.37;;;40.57;;
11037;SDS011;5572;49.540;11.932;2023-03-18T10:22:49;145.83;;;41.53;;
11037;SDS011;5572;49.540;11.932;2023-03-18T10:25:24;139.95;;;38.03;;
11037;SDS011;5572;49.540;11.932;2023-03-18T10:27:58;143.18;;;39.25;;
11037;SDS011;5572;49.540;11.932;2023-03-18T10:30:36;139.88;;;41.13;;
11037;SDS011;5572;49.540;11.932;2023-03-18T10:33:14;139.60;;;39.67;;
11037;SDS011;5572;49.540;11.932;2023-03-18T10:35:50;135.70;;;38.55;;
11037;SDS011;5572;49.540;11.932;2023-03-18T10:38:24;137.68;;;39.00;;
11037;SDS011;5572;49.540;11.932;2023-03-18T10:40:56;139.82;;;40.70;;
11037;SDS011;5572;49.540;11.932;2023-03-18T10:43:24;143.27;;;39.90;;
11037;SDS011;5572;49.540;11.932;2023-03-18T10:45:57;136.07;;;38.72;;
11037;SDS011;5572;49.540;11.932;2023-03-18T10:48:26;133.05;;;38.22;;
11037;SDS011;5572;49.540;11.932;2023-03-18T10:50:59;137.75;;;39.88;;
11037;SDS011;5572;49.540;11.932;2023-03-18T10:53:33;137.02;;;39.70;;
11037;SDS011;5572;49.540;11.932;2023-03-18T10:56:07;134.63;;;38.67;;
11037;SDS011;5572;49.540;11.932;2023-03-18T10:58:36;138.63;;;39.50;;
11037;SDS011;5572;49.540;11.932;2023-03-18T11:01:03;135.82;;;37.97;;
11037;SDS011;5572;49.540;11.932;2023-03-18T11:03:31;128.63;;;36.97;;
11037;SDS011;5572;49.540;11.932;2023-03-18T11:06:00;135.88;;;38.17;;
11037;SDS011;5572;49.540;11.932;2023-03-18T11:08:31;137.77;;;38.50;;
11037;SDS011;5572;49.540;11.932;2023-03-18T11:13:52;129.40;;;37.83;;
11037;SDS011;5572;49.540;11.932;2023-03-18T11:16:22;132.55;;;38.75;;
11037;SDS011;5572;49.540;11.932;2023-03-18T11:18:53;131.57;;;38.10;;
11037;SDS011;5572;49.540;11.932;2023-03-18T11:21:20;133.45;;;36.65;;
11037;SDS011;5572;49.540;11.932;2023-03-18T11:23:49;133.45;;;37.58;;
11037;SDS011;5572;49.540;11.932;2023-03-18T11:26:43;138.32;;;38.20;;
11037;SDS011;5572;49.540;11.932;2023-03-18T11:29:14;137.18;;;38.65;;
11037;SDS011;5572;49.540;11.932;2023-03-18T11:31:46;130.50;;;39.05;;
11037;SDS011;5572;49.540;11.932;2023-03-18T11:34:15;130.30;;;36.70;;
11037;SDS011;5572;49.540;11.932;2023-03-18T11:36:43;138.75;;;38.38;;
11037;SDS011;5572;49.540;11.932;2023-03-18T11:39:17;131.77;;;38.30;;
11037;SDS011;5572;49.540;11.932;2023-03-18T11:41:45;138.60;;;40.58;;
11037;SDS011;5572;49.540;11.932;2023-03-18T11:44:15;130.75;;;40.08;;
11037;SDS011;5572;49.540;11.932;2023-03-18T11:46:44;119.85;;;38.83;;
11037;SDS011;5572;49.540;11.932;2023-03-18T11:49:15;122.78;;;40.03;;
11037;SDS011;5572;49.540;11.932;2023-03-18T11:51:45;125.93;;;39.85;;
11037;SDS011;5572;49.540;11.932;2023-03-18T11:54:29;123.72;;;38.20;;
11037;SDS011;5572;49.540;11.932;2023-03-18T11:57:10;111.88;;;36.33;;
11037;SDS011;5572;49.540;11.932;2023-03-18T11:59:44;115.97;;;36.17;;
11037;SDS011;5572;49.540;11.932;2023-03-18T12:02:25;109.85;;;35.65;;
11037;SDS011;5572;49.540;11.932;2023-03-18T12:05:10;120.47;;;36.92;;
11037;SDS011;5572;49.540;11.932;2023-03-18T12:07:59;114.30;;;37.08;;
11037;SDS011;5572;49.540;11.932;2023-03-18T12:10:34;117.90;;;36.72;;
11037;SDS011;5572;49.540;11.932;2023-03-18T12:13:09;107.53;;;35.20;;
11037;SDS011;5572;49.540;11.932;2023-03-18T12:15:47;98.22;;;33.58;;
11037;SDS011;5572;49.540;11.932;2023-03-18T12:18:22;108.05;;;34.00;;
11037;SDS011;5572;49.540;11.932;2023-03-18T12:20:59;101.47;;;34.45;;
11037;SDS011;5572;49.540;11.932;2023-03-18T12:23:49;102.22;;;33.90;;
11037;SDS011;5572;49.540;11.932;2023-03-18T12:26:24;104.75;;;33.97;;
11037;SDS011;5572;49.540;11.932;2023-03-18T12:29:03;99.40;;;32.80;;
11037;SDS011;5572;49.540;11.932;2023-03-18T12:32:02;78.25;;;29.67;;
11037;SDS011;5572;49.540;11.932;2023-03-18T12:34:45;91.47;;;31.52;;
11037;SDS011;5572;49.540;11.932;2023-03-18T12:37:27;82.97;;;30.73;;
11037;SDS011;5572;49.540;11.932;2023-03-18T12:40:06;96.70;;;33.88;;
11037;SDS011;5572;49.540;11.932;2023-03-18T12:42:57;86.75;;;30.65;;
11037;SDS011;5572;49.540;11.932;2023-03-18T12:45:39;101.50;;;33.45;;
11037;SDS011;5572;49.540;11.932;2023-03-18T12:48:08;106.20;;;34.47;;
11037;SDS011;5572;49.540;11.932;2023-03-18T12:50:40;100.85;;;34.38;;
11037;SDS011;5572;49.540;11.932;2023-03-18T12:53:10;92.88;;;32.22;;
11037;SDS011;5572;49.540;11.932;2023-03-18T12:55:42;85.10;;;31.55;;
11037;SDS011;5572;49.540;11.932;2023-03-18T12:58:14;111.45;;;34.53;;
11037;SDS011;5572;49.540;11.932;2023-03-18T13:00:44;95.32;;;34.85;;
11037;SDS011;5572;49.540;11.932;2023-03-18T13:03:20;84.35;;;30.67;;
11037;SDS011;5572;49.540;11.932;2023-03-18T13:05:54;91.55;;;31.33;;
11037;SDS011;5572;49.540;11.932;2023-03-18T13:11:24;91.93;;;32.83;;
11037;SDS011;5572;49.540;11.932;2023-03-18T13:13:58;87.10;;;31.95;;
11037;SDS011;5572;49.540;11.932;2023-03-18T13:16:30;89.75;;;31.20;;
11037;SDS011;5572;49.540;11.932;2023-03-18T13:18:59;88.93;;;30.80;;
11037;SDS011;5572;49.540;11.932;2023-03-18T13:21:28;92.43;;;33.22;;
11037;SDS011;5572;49.540;11.932;2023-03-18T13:27:12;66.43;;;27.45;;
11037;SDS011;5572;49.540;11.932;2023-03-18T13:29:50;83.30;;;31.33;;
11037;SDS011;5572;49.540;11.932;2023-03-18T13:32:32;75.95;;;29.88;;
11037;SDS011;5572;49.540;11.932;2023-03-18T13:35:21;75.93;;;29.30;;
11037;SDS011;5572;49.540;11.932;2023-03-18T13:38:05;70.90;;;27.98;;
11037;SDS011;5572;49.540;11.932;2023-03-18T13:40:51;83.93;;;30.63;;
11037;SDS011;5572;49.540;11.932;2023-03-18T13:43:27;81.15;;;30.35;;
11037;SDS011;5572;49.540;11.932;2023-03-18T13:45:56;89.30;;;31.60;;
11037;SDS011;5572;49.540;11.932;2023-03-18T13:48:27;94.85;;;33.28;;
11037;SDS011;5572;49.540;11.932;2023-03-18T13:50:56;81.60;;;30.90;;
11037;SDS011;5572;49.540;11.932;2023-03-18T13:53:24;78.88;;;29.95;;
11037;SDS011;5572;49.540;11.932;2023-03-18T13:55:59;87.85;;;31.60;;
11037;SDS011;5572;49.540;11.932;2023-03-18T13:58:28;80.45;;;29.38;;
11037;SDS011;5572;49.540;11.932;2023-03-18T14:01:14;91.88;;;33.53;;
11037;SDS011;5572;49.540;11.932;2023-03-18T14:06:56;78.55;;;30.33;;
11037;SDS011;5572;49.540;11.932;2023-03-18T14:09:53;88.40;;;32.50;;
11037;SDS011;5572;49.540;11.932;2023-03-18T14:12:21;58.17;;;25.33;;
11037;SDS011;5572;49.540;11.932;2023-03-18T14:15:22;70.70;;;30.15;;
11037;SDS011;5572;49.540;11.932;2023-03-18T14:18:00;58.33;;;24.92;;
11037;SDS011;5572;49.540;11.932;2023-03-18T14:20:35;77.05;;;29.95;;
11037;SDS011;5572;49.540;11.932;2023-03-18T14:26:09;77.22;;;30.33;;
11037;SDS011;5572;49.540;11.932;2023-03-18T14:28:45;79.43;;;30.90;;
11037;SDS011;5572;49.540;11.932;2023-03-18T14:31:17;82.75;;;30.52;;
11037;SDS011;5572;49.540;11.932;2023-03-18T14:33:48;101.55;;;36.75;;
11037;SDS011;5572;49.540;11.932;2023-03-18T14:36:43;84.35;;;32.10;;
11037;SDS011;5572;49.540;11.932;2023-03-18T14:39:13;83.57;;;31.20;;
11037;SDS011;5572;49.540;11.932;2023-03-18T14:41:44;101.05;;;36.78;;